Time;durP1;ratioP1;P1;durP2;ratioP2;P2;SDS_P1;SDS_P2;PMS_P1;PMS_P2;Temp;Humidity;BMP_temperature;BMP_pressure;BME280_temperature;BME280_humidity;BME280_pressure;Samples;Min_cycle;Max_cycle;Signal;HPM_P1;HPM_P2
2023/03/21 00:02:03;;;;;;;10.70;5.43;;;11.70;51.10;;;;;;5039583;28;20180;-91
2023/03/21 00:04:30;;;;;;;9.53;5.37;;;11.80;50.80;;;;;;5037438;28;20203;-94
2023/03/21 00:06:56;;;;;;;9.90;5.17;;;11.80;50.50;;;;;;5042108;28;20249;-93
2023/03/21 00:09:23;;;;;;;9.10;4.97;;;11.80;49.10;;;;;;5051849;28;20199;-88
2023/03/21 00:11:48;;;;;;;9.53;5.70;;;11.70;51.10;;;;;;5035832;28;20180;-88
2023/03/21 00:14:18;;;;;;;8.20;4.80;;;11.60;52.20;;;;;;5052625;28;20182;-90
2023/03/21 00:16:51;;;;;;;12.50;5.97;;;11.60;52.10;;;;;;5044821;28;20173;-92
2023/03/21 00:19:19;;;;;;;9.80;5.43;;;11.60;52.80;;;;;;5038849;28;20184;-92
2023/03/21 00:21:45;;;;;;;9.23;5.57;;;11.70;53.00;;;;;;5037209;28;20752;-88
2023/03/21 00:24:12;;;;;;;8.80;5.53;;;11.70;51.90;;;;;;5041823;28;20223;-87
2023/03/21 00:26:40;;;;;;;12.63;5.77;;;11.70;53.00;;;;;;5056184;28;20184;-88
2023/03/21 00:29:06;;;;;;;10.53;5.37;;;11.70;51.90;;;;;;5031983;28;20219;-86
2023/03/21 00:31:32;;;;;;;14.47;5.80;;;11.70;52.20;;;;;;5043938;28;20522;-86
2023/03/21 00:34:00;;;;;;;9.37;5.53;;;11.60;53.20;;;;;;5034436;28;20175;-87
2023/03/21 00:36:26;;;;;;;10.03;5.87;;;11.70;53.70;;;;;;5035424;28;20183;-87
2023/03/21 00:38:53;;;;;;;12.03;5.90;;;11.70;53.60;;;;;;5040116;28;20724;-87
2023/03/21 00:41:19;;;;;;;8.70;5.40;;;11.80;52.70;;;;;;5037018;28;20168;-87
2023/03/21 00:43:45;;;;;;;9.93;5.27;;;11.70;52.80;;;;;;5039486;28;20318;-85
2023/03/21 00:46:12;;;;;;;10.23;5.33;;;11.80;52.10;;;;;;5042401;28;20199;-87
2023/03/21 00:48:38;;;;;;;8.30;4.63;;;11.70;52.40;;;;;;5042828;28;20177;-87
2023/03/21 00:51:12;;;;;;;8.87;5.03;;;11.90;52.30;;;;;;5024508;28;20183;-87
2023/03/21 00:53:39;;;;;;;8.80;5.17;;;11.80;50.90;;;;;;5037232;28;20655;-87
2023/03/21 00:56:04;;;;;;;9.23;5.20;;;11.70;50.00;;;;;;5036420;28;20174;-87
2023/03/21 00:58:30;;;;;;;9.13;4.80;;;11.90;48.60;;;;;;5036749;28;20249;-87
2023/03/21 01:00:56;;;;;;;8.77;5.33;;;11.80;48.30;;;;;;5038842;28;20229;-87
2023/03/21 01:03:25;;;;;;;10.73;5.40;;;11.80;50.20;;;;;;5041076;28;20181;-89
2023/03/21 01:06:01;;;;;;;9.97;4.57;;;11.70;50.90;;;;;;5041446;28;20187;-88
2023/03/21 01:08:27;;;;;;;12.33;5.30;;;11.80;50.60;;;;;;5035521;28;20192;-87
2023/03/21 01:10:54;;;;;;;12.37;5.50;;;11.80;49.70;;;;;;5051413;28;20186;-89
2023/03/21 01:13:23;;;;;;;9.53;4.40;;;11.80;49.00;;;;;;5054975;28;20180;-93
2023/03/21 01:15:51;;;;;;;12.03;5.17;;;11.80;47.80;;;;;;5045919;28;20203;-94
2023/03/21 01:18:20;;;;;;;9.37;4.77;;;11.80;48.10;;;;;;5036214;28;20196;-86
2023/03/21 01:20:46;;;;;;;9.93;5.03;;;11.70;49.90;;;;;;5051549;28;20661;-87
2023/03/21 01:23:14;;;;;;;8.37;4.63;;;11.70;50.60;;;;;;5059997;28;20172;-89
2023/03/21 01:25:40;;;;;;;10.10;4.53;;;11.70;49.50;;;;;;5060047;28;20169;-88
2023/03/21 01:28:07;;;;;;;9.40;5.23;;;11.80;49.10;;;;;;5060310;28;20235;-88
2023/03/21 01:30:35;;;;;;;11.83;5.17;;;11.80;48.50;;;;;;5057999;28;20181;-87
2023/03/21 01:33:04;;;;;;;9.20;5.10;;;11.70;49.40;;;;;;5051211;28;20361;-92
2023/03/21 01:35:52;;;;;;;9.20;5.30;;;11.80;50.00;;;;;;5037755;28;20175;-87
2023/03/21 01:38:17;;;;;;;9.83;4.70;;;11.60;50.00;;;;;;5043895;28;20178;-87
2023/03/21 01:40:46;;;;;;;10.67;4.77;;;11.70;50.20;;;;;;5037497;28;20189;-91
2023/03/21 01:43:22;;;;;;;9.27;5.47;;;11.70;50.10;;;;;;5037713;28;20231;-89
2023/03/21 01:46:29;;;;;;;8.47;4.40;;;11.70;49.70;;;;;;5036536;28;20292;-93
2023/03/21 01:49:03;;;;;;;12.07;5.03;;;11.70;49.30;;;;;;5032685;28;20183;-87
2023/03/21 01:51:35;;;;;;;11.00;5.50;;;11.70;48.60;;;;;;5054208;28;20173;-85
2023/03/21 01:54:01;;;;;;;11.00;5.67;;;11.70;49.00;;;;;;5052478;28;20178;-86
2023/03/21 01:56:34;;;;;;;11.83;5.27;;;11.70;49.10;;;;;;5049267;28;20242;-87
2023/03/21 01:59:10;;;;;;;11.73;6.27;;;11.70;48.10;;;;;;5042697;28;20178;-90
2023/03/21 02:01:37;;;;;;;9.00;5.00;;;11.70;47.50;;;;;;5048159;28;20174;-90
2023/03/21 02:04:07;;;;;;;9.80;5.87;;;11.70;46.60;;;;;;5039002;28;20260;-92
2023/03/21 02:06:47;;;;;;;11.77;5.80;;;11.80;46.50;;;;;;5037584;28;20184;-92
2023/03/21 02:09:18;;;;;;;12.47;6.00;;;11.70;45.30;;;;;;5038877;28;20185;-91
2023/03/21 02:11:45;;;;;;;12.50;5.00;;;11.80;45.00;;;;;;5043333;28;20718;-87
2023/03/21 02:14:17;;;;;;;9.97;5.43;;;11.80;44.80;;;;;;5047746;28;20189;-92
2023/03/21 02:17:11;;;;;;;14.23;5.77;;;11.80;44.00;;;;;;5052147;28;20176;-86
2023/03/21 02:20:07;;;;;;;12.10;6.20;;;11.80;42.50;;;;;;5049010;28;20188;-93
2023/03/21 02:23:12;;;;;;;12.17;5.17;;;11.80;42.40;;;;;;5048267;28;20197;-85
2023/03/21 02:26:15;;;;;;;12.33;5.43;;;11.90;41.90;;;;;;5049432;28;20182;-84
2023/03/21 02:28:52;;;;;;;9.97;5.40;;;12.00;40.60;;;;;;5048969;28;20186;-87
2023/03/21 02:31:56;;;;;;;9.63;5.10;;;12.00;38.90;;;;;;5042692;28;20182;-89
2023/03/21 02:34:36;;;;;;;12.73;5.70;;;12.10;38.60;;;;;;5049018;28;20239;-86
2023/03/21 02:37:22;;;;;;;10.30;5.30;;;12.20;36.90;;;;;;5048457;28;20175;-85
2023/03/21 02:40:08;;;;;;;11.87;5.37;;;12.30;36.00;;;;;;5051300;28;20477;-85
2023/03/21 02:43:00;;;;;;;10.17;5.27;;;12.30;34.10;;;;;;5048963;28;20189;-86
2023/03/21 02:46:06;;;;;;;9.70;5.20;;;12.40;30.10;;;;;;5052863;28;20222;-86
2023/03/21 02:48:38;;;;;;;12.63;5.47;;;12.40;27.40;;;;;;4980725;28;20216;-90
2023/03/21 02:51:06;;;;;;;10.00;4.73;;;12.30;29.60;;;;;;5038828;28;20174;-92
2023/03/21 02:53:36;;;;;;;10.80;4.70;;;12.20;31.90;;;;;;5020803;28;20535;-93
2023/03/21 02:56:03;;;;;;;13.57;5.10;;;12.20;32.40;;;;;;5016593;28;20225;-89
2023/03/21 02:58:31;;;;;;;9.80;4.70;;;12.20;31.40;;;;;;5015222;28;20182;-92
2023/03/21 03:00:57;;;;;;;12.90;4.70;;;12.20;32.50;;;;;;5016611;28;20598;-94
2023/03/21 03:03:23;;;;;;;9.07;4.47;;;12.10;32.00;;;;;;5016811;28;20183;-93
2023/03/21 03:05:54;;;;;;;11.40;4.27;;;12.30;31.90;;;;;;5017195;28;20185;-93
2023/03/21 03:08:59;;;;;;;9.97;4.70;;;12.30;30.60;;;;;;5015311;28;20186;-86
2023/03/21 03:11:33;;;;;;;12.83;5.07;;;12.30;29.60;;;;;;5005538;28;20659;-86
2023/03/21 03:14:01;;;;;;;12.50;6.13;;;12.20;30.40;;;;;;5017126;28;20176;-89
2023/03/21 03:16:38;;;;;;;10.53;4.67;;;12.10;31.10;;;;;;5038117;28;20168;-86
2023/03/21 03:19:09;;;;;;;9.70;4.70;;;12.20;32.70;;;;;;5037736;28;20180;-86
2023/03/21 03:21:57;;;;;;;10.23;4.90;;;12.20;31.30;;;;;;5037987;28;20211;-89
2023/03/21 03:24:37;;;;;;;12.00;5.17;;;12.10;31.10;;;;;;5035829;28;20208;-86
2023/03/21 03:27:42;;;;;;;11.73;4.43;;;12.10;31.60;;;;;;5035792;28;20168;-86
2023/03/21 03:30:10;;;;;;;10.47;3.87;;;12.10;32.60;;;;;;4991958;28;20180;-91
2023/03/21 03:32:45;;;;;;;7.83;4.03;;;12.00;34.20;;;;;;5008977;28;20193;-90
2023/03/21 03:35:15;;;;;;;10.33;4.17;;;12.00;33.20;;;;;;5030424;28;20165;-86
2023/03/21 03:37:43;;;;;;;13.03;4.67;;;12.00;31.90;;;;;;5036028;28;20166;-87
2023/03/21 03:40:26;;;;;;;10.50;4.43;;;12.00;31.50;;;;;;5023560;28;20193;-86
2023/03/21 03:43:02;;;;;;;10.40;3.90;;;12.10;30.60;;;;;;5018540;28;20197;-93
2023/03/21 03:45:34;;;;;;;8.77;4.53;;;12.10;29.80;;;;;;5000430;28;20214;-91
2023/03/21 03:48:26;;;;;;;10.20;4.30;;;12.20;27.90;;;;;;5026152;28;20176;-91
2023/03/21 03:51:00;;;;;;;9.60;3.97;;;12.20;27.60;;;;;;5037563;28;20154;-88
2023/03/21 03:53:31;;;;;;;11.10;4.20;;;12.10;28.50;;;;;;5036897;28;20175;-88
2023/03/21 03:55:59;;;;;;;10.07;4.27;;;12.10;28.20;;;;;;5037716;28;20183;-89
2023/03/21 03:58:26;;;;;;;7.23;3.67;;;12.20;28.40;;;;;;5020033;28;20259;-88
2023/03/21 04:01:08;;;;;;;13.40;4.47;;;12.10;28.90;;;;;;5035191;28;20156;-89
2023/03/21 04:03:41;;;;;;;9.60;4.10;;;12.10;29.50;;;;;;5036621;28;20270;-86
2023/03/21 04:06:08;;;;;;;9.67;4.50;;;12.10;29.50;;;;;;5019676;28;20204;-93
2023/03/21 04:08:36;;;;;;;10.33;4.30;;;12.10;28.70;;;;;;5019360;28;20202;-92
2023/03/21 04:11:02;;;;;;;11.20;4.97;;;12.30;28.40;;;;;;5036037;28;20184;-91
2023/03/21 04:13:29;;;;;;;11.43;4.57;;;12.20;27.60;;;;;;5021756;28;20217;-91
2023/03/21 04:16:15;;;;;;;10.47;4.90;;;12.20;28.80;;;;;;5030280;28;20306;-85
2023/03/21 04:18:41;;;;;;;8.63;4.47;;;12.10;29.40;;;;;;5033349;28;20195;-88
2023/03/21 04:21:12;;;;;;;11.30;5.70;;;12.00;30.60;;;;;;5024988;28;20201;-86
2023/03/21 04:23:38;;;;;;;13.00;5.60;;;12.10;31.90;;;;;;5029090;28;20205;-88
2023/03/21 04:26:05;;;;;;;12.97;5.47;;;12.10;31.80;;;;;;5026287;28;20217;-90
2023/03/21 04:28:32;;;;;;;7.87;4.83;;;12.10;32.70;;;;;;5008522;28;20587;-91
2023/03/21 04:30:59;;;;;;;11.53;5.40;;;12.20;31.50;;;;;;5033717;28;20214;-91
2023/03/21 04:33:24;;;;;;;11.90;6.00;;;12.10;32.10;;;;;;5024770;28;20182;-87
2023/03/21 04:35:55;;;;;;;13.43;6.30;;;12.20;33.50;;;;;;5036296;28;20165;-87
2023/03/21 04:38:22;;;;;;;12.13;5.53;;;12.10;35.00;;;;;;5023596;28;20166;-91
2023/03/21 04:40:48;;;;;;;11.00;5.97;;;12.10;36.00;;;;;;5023158;28;20209;-91
2023/03/21 04:43:15;;;;;;;12.37;6.33;;;12.10;37.00;;;;;;5006032;28;20179;-92
2023/03/21 04:45:41;;;;;;;15.70;6.93;;;12.20;38.20;;;;;;5019729;28;20215;-91
2023/03/21 04:48:07;;;;;;;14.43;6.13;;;12.20;36.10;;;;;;5020176;28;20184;-91
2023/03/21 04:50:34;;;;;;;17.47;6.90;;;12.20;37.30;;;;;;5019946;28;20182;-90
2023/03/21 04:53:00;;;;;;;12.07;6.40;;;12.20;38.70;;;;;;5007893;28;20218;-92
2023/03/21 04:55:31;;;;;;;12.53;6.00;;;12.30;39.60;;;;;;5022901;28;20283;-92
2023/03/21 04:57:57;;;;;;;12.70;6.63;;;12.20;39.90;;;;;;5019712;28;20276;-94
2023/03/21 05:00:24;;;;;;;12.13;6.27;;;12.20;41.70;;;;;;5019090;28;20218;-92
2023/03/21 05:02:50;;;;;;;19.23;6.53;;;12.30;41.80;;;;;;5033199;28;20165;-86
2023/03/21 05:05:16;;;;;;;13.53;6.20;;;12.20;42.80;;;;;;5037233;28;20206;-85
2023/03/21 05:07:41;;;;;;;11.00;6.40;;;12.20;44.70;;;;;;5038484;28;20175;-91
2023/03/21 05:10:11;;;;;;;14.60;6.90;;;12.20;45.50;;;;;;5017058;28;20186;-90
2023/03/21 05:12:37;;;;;;;11.47;6.23;;;12.20;46.10;;;;;;5030761;28;20234;-87
2023/03/21 05:15:04;;;;;;;14.93;6.87;;;12.20;45.70;;;;;;5039884;28;20162;-89
2023/03/21 05:17:30;;;;;;;12.93;6.90;;;12.20;46.00;;;;;;5033912;28;20198;-89
2023/03/21 05:20:00;;;;;;;12.37;6.17;;;12.30;46.40;;;;;;5038926;28;20199;-86
2023/03/21 05:22:27;;;;;;;13.50;6.70;;;12.30;46.10;;;;;;5039374;28;20227;-87
2023/03/21 05:24:54;;;;;;;16.67;7.17;;;12.30;45.80;;;;;;5021057;28;20218;-88
2023/03/21 05:27:33;;;;;;;14.47;7.53;;;12.20;46.00;;;;;;5030933;28;20170;-94
2023/03/21 05:30:16;;;;;;;10.47;6.43;;;12.20;46.50;;;;;;5021018;28;20188;-89
2023/03/21 05:32:41;;;;;;;13.73;6.43;;;12.20;47.20;;;;;;5020152;28;20178;-93
2023/03/21 05:35:08;;;;;;;12.87;6.53;;;12.30;46.80;;;;;;5004674;28;20190;-93
2023/03/21 05:37:38;;;;;;;12.33;6.70;;;12.30;44.90;;;;;;5025422;28;20185;-93
2023/03/21 05:40:06;;;;;;;13.03;6.07;;;12.30;44.10;;;;;;5034515;28;20185;-87
2023/03/21 05:42:32;;;;;;;13.20;6.23;;;12.20;45.50;;;;;;5033356;28;20199;-88
2023/03/21 05:44:57;;;;;;;11.13;6.30;;;12.30;45.50;;;;;;5026103;28;20668;-86
2023/03/21 05:47:23;;;;;;;15.00;6.93;;;12.30;44.00;;;;;;5013757;28;20231;-88
2023/03/21 05:49:49;;;;;;;15.10;6.67;;;12.40;43.90;;;;;;5034375;28;20170;-86
2023/03/21 05:52:15;;;;;;;14.83;6.43;;;12.20;45.50;;;;;;5024263;28;20185;-88
2023/03/21 05:54:42;;;;;;;15.47;6.80;;;12.30;50.80;;;;;;5004906;28;20184;-90
2023/03/21 05:57:10;;;;;;;14.00;6.73;;;12.10;53.40;;;;;;5021062;28;20201;-91
2023/03/21 05:59:36;;;;;;;13.73;6.63;;;12.20;58.60;;;;;;5017988;28;20577;-87
2023/03/21 06:02:06;;;;;;;12.77;6.77;;;12.00;59.60;;;;;;5020635;28;20268;-87
2023/03/21 06:04:33;;;;;;;11.87;6.33;;;12.00;63.00;;;;;;5023685;28;20242;-88
2023/03/21 06:07:00;;;;;;;14.93;7.13;;;12.00;65.50;;;;;;5021736;28;20246;-86
2023/03/21 06:09:26;;;;;;;12.00;6.43;;;12.00;67.00;;;;;;5030921;28;20201;-88
2023/03/21 06:11:54;;;;;;;12.07;6.20;;;11.80;70.50;;;;;;5018767;28;20186;-86
2023/03/21 06:14:23;;;;;;;13.07;6.23;;;11.80;72.80;;;;;;5018853;28;20185;-89
2023/03/21 06:16:51;;;;;;;13.70;6.30;;;11.80;74.30;;;;;;5022124;28;20163;-88
2023/03/21 06:19:23;;;;;;;15.83;6.60;;;11.70;77.80;;;;;;5036777;28;20190;-86
2023/03/21 06:21:49;;;;;;;12.17;6.90;;;11.80;81.40;;;;;;5027720;28;20212;-90
2023/03/21 06:24:16;;;;;;;13.20;6.27;;;11.70;83.70;;;;;;5029549;28;20224;-88
2023/03/21 06:26:42;;;;;;;12.13;6.97;;;11.60;85.60;;;;;;5038381;28;20174;-87
2023/03/21 06:29:09;;;;;;;12.37;6.77;;;11.80;87.10;;;;;;5038372;28;20178;-87
2023/03/21 06:31:35;;;;;;;13.03;6.97;;;11.70;88.70;;;;;;5035738;28;20175;-85
2023/03/21 06:34:03;;;;;;;13.77;5.90;;;11.70;88.20;;;;;;5038579;28;20163;-87
2023/03/21 06:36:31;;;;;;;12.90;6.43;;;11.60;88.40;;;;;;5038339;28;20197;-88
2023/03/21 06:39:19;;;;;;;12.40;6.43;;;11.60;88.70;;;;;;5031303;28;20182;-84
2023/03/21 06:41:48;;;;;;;11.23;5.80;;;11.60;88.10;;;;;;5025314;28;20177;-94
2023/03/21 06:44:21;;;;;;;13.90;6.10;;;11.60;87.60;;;;;;5018480;28;20273;-87
2023/03/21 06:46:47;;;;;;;10.97;5.83;;;11.60;88.40;;;;;;5020726;28;20257;-88
2023/03/21 06:49:13;;;;;;;17.33;8.27;;;11.60;88.30;;;;;;5017019;28;20201;-89
2023/03/21 06:51:40;;;;;;;13.50;6.50;;;11.50;87.30;;;;;;5025517;28;20192;-89
2023/03/21 06:54:06;;;;;;;11.07;5.50;;;11.80;87.40;;;;;;5023167;28;20197;-91
2023/03/21 06:56:32;;;;;;;9.77;6.30;;;11.60;86.30;;;;;;5016752;28;20186;-88
2023/03/21 06:58:58;;;;;;;10.77;5.70;;;11.70;86.10;;;;;;5018526;28;20180;-93
2023/03/21 07:01:29;;;;;;;11.73;5.83;;;11.90;82.60;;;;;;5021139;28;20184;-92
2023/03/21 07:03:57;;;;;;;9.57;5.33;;;11.70;81.00;;;;;;5027130;28;20198;-91
2023/03/21 07:06:27;;;;;;;10.70;4.77;;;11.70;79.10;;;;;;5028624;28;20188;-90
2023/03/21 07:08:54;;;;;;;10.13;5.03;;;11.90;75.50;;;;;;5023494;28;20235;-89
2023/03/21 07:11:22;;;;;;;13.37;5.00;;;11.70;73.70;;;;;;5043256;28;20170;-87
2023/03/21 07:13:49;;;;;;;9.60;4.73;;;11.70;71.20;;;;;;5042255;28;20177;-89
2023/03/21 07:16:16;;;;;;;10.83;4.70;;;11.70;69.80;;;;;;5046244;28;20169;-90
2023/03/21 07:18:42;;;;;;;9.50;4.03;;;11.80;71.50;;;;;;5044254;28;20205;-89
2023/03/21 07:21:17;;;;;;;6.80;3.70;;;11.90;69.30;;;;;;5026056;28;20201;-90
2023/03/21 07:23:44;;;;;;;9.57;3.77;;;11.80;62.40;;;;;;5035815;28;20234;-90
2023/03/21 07:26:10;;;;;;;8.30;4.30;;;11.80;61.30;;;;;;5035600;28;20561;-89
2023/03/21 07:28:39;;;;;;;7.53;4.13;;;11.80;59.90;;;;;;5019033;28;20274;-89
2023/03/21 07:31:31;;;;;;;11.30;5.83;;;11.90;58.90;;;;;;5003525;28;20182;-90
2023/03/21 07:34:00;;;;;;;10.00;4.47;;;11.90;56.60;;;;;;5018604;28;20231;-87
2023/03/21 07:36:27;;;;;;;9.77;3.60;;;12.00;54.90;;;;;;5025551;28;20210;-89
2023/03/21 07:38:53;;;;;;;6.73;3.43;;;12.00;52.20;;;;;;5024887;28;20176;-87
2023/03/21 07:41:19;;;;;;;5.23;3.10;;;11.90;50.50;;;;;;5018647;28;20739;-87
2023/03/21 07:43:45;;;;;;;6.00;2.80;;;11.90;50.90;;;;;;5019058;28;20240;-88
2023/03/21 07:46:13;;;;;;;6.03;2.90;;;11.90;50.00;;;;;;5018036;28;20182;-86
2023/03/21 07:48:39;;;;;;;6.53;3.20;;;11.90;48.90;;;;;;5020033;28;20175;-86
2023/03/21 07:51:05;;;;;;;7.67;3.33;;;11.90;48.60;;;;;;5034440;28;20196;-85
2023/03/21 07:53:31;;;;;;;6.73;3.53;;;11.90;48.80;;;;;;5046594;28;20180;-87
2023/03/21 07:55:57;;;;;;;7.63;3.50;;;11.90;48.90;;;;;;5037144;28;20174;-85
2023/03/21 07:58:24;;;;;;;9.83;3.33;;;11.90;49.50;;;;;;5050802;28;20250;-88
2023/03/21 08:00:55;;;;;;;7.63;3.93;;;11.90;48.80;;;;;;5040640;28;20186;-86
2023/03/21 08:03:22;;;;;;;6.67;3.27;;;11.90;48.40;;;;;;5028360;28;20630;-88
2023/03/21 08:05:48;;;;;;;8.80;4.00;;;12.00;47.10;;;;;;5020737;28;20225;-91
2023/03/21 08:08:14;;;;;;;9.27;3.47;;;12.00;47.10;;;;;;5018459;28;20629;-88
2023/03/21 08:10:44;;;;;;;6.80;2.93;;;11.90;47.90;;;;;;5024521;28;20212;-87
2023/03/21 08:13:10;;;;;;;11.70;3.30;;;12.00;47.90;;;;;;5021503;28;20589;-89
2023/03/21 08:15:36;;;;;;;10.77;3.90;;;12.00;47.30;;;;;;5005279;28;20182;-89
2023/03/21 08:18:02;;;;;;;11.93;3.33;;;12.10;46.30;;;;;;5023751;28;20194;-90
2023/03/21 08:20:28;;;;;;;7.20;3.80;;;12.10;45.60;;;;;;5050224;28;20210;-89
2023/03/21 08:22:54;;;;;;;9.60;4.13;;;12.20;45.70;;;;;;5047227;28;20208;-90
2023/03/21 08:25:21;;;;;;;6.67;3.40;;;12.20;45.40;;;;;;5052415;28;20239;-91
2023/03/21 08:27:48;;;;;;;8.77;4.03;;;12.20;46.10;;;;;;5052511;28;20167;-88
2023/03/21 08:30:44;;;;;;;8.93;4.10;;;12.20;46.10;;;;;;5043429;28;20174;-89
2023/03/21 08:33:12;;;;;;;9.20;3.70;;;12.30;44.20;;;;;;5012681;28;20179;-89
2023/03/21 08:35:40;;;;;;;7.77;4.20;;;12.30;44.00;;;;;;5027399;28;20170;-91
2023/03/21 08:38:09;;;;;;;9.57;3.80;;;12.30;44.50;;;;;;5048022;28;20204;-89
2023/03/21 08:40:35;;;;;;;6.17;3.53;;;12.30;43.80;;;;;;5039365;28;20609;-88
2023/03/21 08:43:01;;;;;;;9.73;3.70;;;12.40;43.00;;;;;;5036901;28;20666;-89
2023/03/21 08:45:27;;;;;;;7.50;4.00;;;12.30;40.50;;;;;;5035599;28;20209;-91
2023/03/21 08:47:55;;;;;;;11.50;4.23;;;12.30;39.70;;;;;;5041184;28;20580;-89
2023/03/21 08:50:30;;;;;;;7.27;4.10;;;12.30;38.30;;;;;;5027282;28;20194;-91
2023/03/21 08:52:59;;;;;;;10.47;3.90;;;12.40;38.10;;;;;;5019852;28;20178;-91
2023/03/21 08:55:24;;;;;;;6.73;3.30;;;12.60;37.00;;;;;;5035532;28;20174;-91
2023/03/21 08:57:50;;;;;;;9.23;3.70;;;12.60;33.00;;;;;;5038028;28;20174;-92
2023/03/21 09:00:17;;;;;;;10.33;3.73;;;12.60;30.20;;;;;;5041513;28;20172;-89
2023/03/21 09:02:44;;;;;;;9.27;3.93;;;12.60;28.60;;;;;;5041685;28;20166;-90
2023/03/21 09:05:11;;;;;;;8.47;3.40;;;12.70;28.20;;;;;;5040923;28;20215;-88
2023/03/21 09:07:39;;;;;;;5.97;3.67;;;12.80;26.90;;;;;;5042222;28;20175;-88
2023/03/21 09:10:06;;;;;;;9.80;3.30;;;12.70;26.20;;;;;;5049508;28;20248;-88
2023/03/21 09:12:33;;;;;;;7.37;3.83;;;12.80;24.00;;;;;;5057103;28;20191;-86
2023/03/21 09:15:03;;;;;;;7.90;3.70;;;12.90;21.20;;;;;;5056462;28;20199;-91
2023/03/21 09:17:30;;;;;;;10.77;3.90;;;12.90;19.50;;;;;;5031840;28;20221;-89
2023/03/21 09:20:24;;;;;;;11.30;6.17;;;12.80;19.90;;;;;;5042608;28;20191;-90
2023/03/21 09:22:55;;;;;;;8.77;3.77;;;12.80;19.80;;;;;;5037916;28;20167;-89
2023/03/21 09:25:35;;;;;;;10.57;3.70;;;12.70;18.30;;;;;;5053095;28;20214;-89
2023/03/21 09:28:04;;;;;;;11.37;3.37;;;12.80;18.00;;;;;;5045180;28;20204;-87
2023/03/21 09:30:34;;;;;;;6.97;3.30;;;12.80;18.20;;;;;;5040116;28;20166;-89
2023/03/21 09:33:08;;;;;;;10.00;4.10;;;12.80;16.20;;;;;;5039187;28;20259;-91
2023/03/21 09:35:52;;;;;;;9.43;3.40;;;12.80;14.70;;;;;;5039266;28;20202;-90
2023/03/21 09:38:18;;;;;;;6.20;3.00;;;12.90;14.60;;;;;;5008888;28;20187;-90
2023/03/21 09:41:15;;;;;;;9.70;3.90;;;13.10;13.60;;;;;;5025538;28;20196;-87
2023/03/21 09:43:58;;;;;;;8.77;3.70;;;13.00;10.70;;;;;;5031905;28;20163;-90
2023/03/21 09:46:59;;;;;;;9.83;3.40;;;13.00;11.40;;;;;;5033029;28;20203;-89
2023/03/21 09:49:42;;;;;;;5.23;3.60;;;13.10;12.30;;;;;;5032068;28;20200;-88
2023/03/21 09:52:23;;;;;;;11.17;3.60;;;13.30;6.20;;;;;;5031071;28;20174;-89
2023/03/21 09:54:49;;;;;;;7.97;3.43;;;13.40;1.00;;;;;;5030420;28;20195;-86
2023/03/21 09:57:33;;;;;;;9.27;3.70;;;13.40;1.00;;;;;;5033233;28;20198;-89
2023/03/21 10:00:08;;;;;;;6.90;3.30;;;13.40;1.00;;;;;;5025431;28;20176;-90
2023/03/21 10:02:38;;;;;;;9.47;4.23;;;13.40;1.00;;;;;;5022091;28;20201;-86
2023/03/21 10:05:17;;;;;;;8.63;3.83;;;13.40;1.00;;;;;;5032182;28;20212;-86
2023/03/21 10:07:54;;;;;;;10.10;3.87;;;13.40;1.00;;;;;;5038481;28;20197;-87
2023/03/21 10:10:31;;;;;;;9.50;3.97;;;13.40;1.00;;;;;;5038074;28;20214;-89
2023/03/21 10:12:56;;;;;;;10.17;3.53;;;13.60;1.00;;;;;;5037962;28;20215;-87
2023/03/21 10:15:25;;;;;;;9.27;3.93;;;13.50;1.00;;;;;;5026457;28;20188;-85
2023/03/21 10:18:00;;;;;;;6.33;3.10;;;13.50;1.00;;;;;;5038018;28;20174;-89
2023/03/21 10:20:30;;;;;;;7.27;3.50;;;13.40;1.00;;;;;;5023410;28;20559;-89
2023/03/21 10:23:02;;;;;;;10.80;3.47;;;13.30;1.00;;;;;;5031385;28;20202;-89
2023/03/21 10:25:39;;;;;;;12.17;4.13;;;13.40;1.00;;;;;;5030780;28;20280;-93
2023/03/21 10:28:07;;;;;;;10.23;4.33;;;13.40;1.00;;;;;;5056175;28;20226;-88
2023/03/21 10:30:51;;;;;;;8.53;3.73;;;13.60;1.00;;;;;;5045239;28;20178;-90
2023/03/21 10:33:53;;;;;;;9.00;4.00;;;13.60;1.00;;;;;;5034318;28;20172;-88
2023/03/21 10:36:30;;;;;;;9.80;4.13;;;13.50;1.00;;;;;;5004264;28;20192;-86
2023/03/21 10:38:58;;;;;;;7.53;4.00;;;13.70;1.00;;;;;;5055583;28;20185;-88
2023/03/21 10:41:27;;;;;;;8.30;3.90;;;13.80;1.00;;;;;;5052736;28;20534;-89
2023/03/21 10:44:17;;;;;;;6.93;4.17;;;14.00;1.00;;;;;;5040300;28;20228;-87
2023/03/21 10:50:16;;;;;;;6.97;3.90;;;14.00;1.00;;;;;;5053299;28;20152;-88
2023/03/21 10:52:49;;;;;;;8.27;3.63;;;14.10;1.00;;;;;;5051954;28;20187;-89
2023/03/21 10:55:33;;;;;;;8.63;3.83;;;14.10;1.00;;;;;;5037048;28;20177;-88
2023/03/21 10:58:06;;;;;;;8.03;4.10;;;14.30;1.00;;;;;;5037701;28;20184;-88
2023/03/21 11:00:43;;;;;;;7.30;3.63;;;14.60;1.00;;;;;;5036116;28;20169;-89
2023/03/21 11:03:35;;;;;;;8.77;3.83;;;14.70;1.00;;;;;;5035955;28;20770;-88
2023/03/21 11:06:21;;;;;;;9.77;4.30;;;14.50;1.00;;;;;;5037218;28;20190;-88
2023/03/21 11:09:15;;;;;;;8.43;4.10;;;14.50;1.00;;;;;;5023149;28;20197;-88
2023/03/21 11:11:52;;;;;;;8.80;4.07;;;14.40;1.00;;;;;;5019268;28;20261;-87
2023/03/21 11:14:42;;;;;;;7.90;4.07;;;14.30;1.00;;;;;;5033521;28;20174;-86
2023/03/21 11:17:17;;;;;;;9.43;4.00;;;14.20;1.00;;;;;;5022913;28;20267;-86
2023/03/21 11:19:48;;;;;;;7.50;4.00;;;14.20;1.00;;;;;;5025737;28;20188;-86
2023/03/21 11:22:15;;;;;;;8.47;4.23;;;14.20;1.00;;;;;;5005566;28;20228;-87
2023/03/21 11:24:47;;;;;;;9.80;3.90;;;14.30;1.00;;;;;;5018848;28;20217;-88
2023/03/21 11:27:14;;;;;;;8.13;3.80;;;14.20;1.00;;;;;;5018279;28;20269;-86
2023/03/21 11:29:46;;;;;;;7.23;4.03;;;14.10;1.00;;;;;;5018799;28;20262;-87
2023/03/21 11:32:36;;;;;;;9.77;3.50;;;14.00;1.00;;;;;;5019672;28;20174;-87
2023/03/21 11:35:43;;;;;;;5.87;3.40;;;14.20;1.00;;;;;;5023349;28;20176;-92
2023/03/21 11:38:33;;;;;;;7.97;3.90;;;14.20;1.00;;;;;;5016343;28;20737;-88
2023/03/21 11:41:04;;;;;;;8.73;4.23;;;14.20;1.00;;;;;;5041455;28;20172;-89
2023/03/21 11:43:39;;;;;;;9.73;3.67;;;14.20;1.00;;;;;;5037943;28;20188;-89
2023/03/21 11:46:12;;;;;;;5.40;3.30;;;14.20;1.00;;;;;;5038737;28;20207;-90
2023/03/21 11:48:43;;;;;;;8.77;4.00;;;14.30;1.00;;;;;;5036247;28;20626;-90
2023/03/21 11:51:49;;;;;;;8.17;4.20;;;14.40;1.00;;;;;;5044155;28;20200;-91
2023/03/21 11:54:59;;;;;;;7.30;3.93;;;14.50;1.00;;;;;;5016303;28;20184;-89
2023/03/21 11:58:01;;;;;;;9.23;4.00;;;14.50;1.00;;;;;;5021793;28;20169;-91
2023/03/21 12:00:38;;;;;;;6.13;3.70;;;14.60;1.00;;;;;;5038434;28;20180;-90
2023/03/21 12:03:24;;;;;;;10.63;4.67;;;14.50;1.00;;;;;;5049977;28;20177;-91
2023/03/21 12:06:02;;;;;;;10.00;4.07;;;14.60;1.00;;;;;;5034846;28;20211;-90
2023/03/21 12:08:58;;;;;;;10.13;4.53;;;14.60;1.00;;;;;;5042419;28;20156;-89
2023/03/21 12:11:37;;;;;;;9.03;4.10;;;14.70;1.00;;;;;;5049029;28;20179;-88
2023/03/21 12:14:41;;;;;;;5.97;4.30;;;14.60;1.00;;;;;;5047882;28;20204;-88
2023/03/21 12:17:56;;;;;;;7.43;4.67;;;14.40;1.00;;;;;;5038721;28;20180;-89
2023/03/21 12:20:29;;;;;;;5.90;4.00;;;14.40;1.00;;;;;;5038075;28;20198;-92
2023/03/21 12:23:15;;;;;;;10.17;4.20;;;14.30;1.00;;;;;;5033700;28;20166;-90
2023/03/21 12:26:19;;;;;;;8.43;4.73;;;14.30;1.00;;;;;;5031025;28;20221;-90
2023/03/21 12:29:14;;;;;;;8.97;4.60;;;14.40;1.00;;;;;;5037750;28;20207;-89
2023/03/21 12:32:28;;;;;;;7.57;4.33;;;14.50;1.00;;;;;;5033401;28;20200;-90
2023/03/21 12:35:26;;;;;;;8.03;4.57;;;14.60;1.00;;;;;;5022160;28;20177;-89
2023/03/21 12:38:10;;;;;;;8.30;4.37;;;14.60;1.00;;;;;;5024143;28;20196;-91
2023/03/21 12:41:30;;;;;;;7.33;4.10;;;14.60;1.00;;;;;;5022298;28;20169;-90
2023/03/21 12:43:59;;;;;;;7.23;4.43;;;14.70;1.00;;;;;;5019348;28;20223;-91
2023/03/21 12:46:32;;;;;;;9.23;4.40;;;14.90;1.00;;;;;;5032912;28;20300;-89
2023/03/21 12:49:23;;;;;;;7.27;3.80;;;14.90;1.00;;;;;;5052275;28;20199;-89
2023/03/21 12:52:23;;;;;;;6.77;4.17;;;14.80;1.00;;;;;;5024304;28;20201;-90
2023/03/21 12:55:01;;;;;;;7.13;5.63;;;14.80;1.00;;;;;;5035044;28;20183;-89
2023/03/21 12:57:33;;;;;;;7.80;3.90;;;14.80;1.00;;;;;;5044642;28;20770;-87
2023/03/21 13:00:13;;;;;;;7.17;4.07;;;15.00;1.00;;;;;;5039863;28;20199;-89
2023/03/21 13:03:01;;;;;;;8.53;4.20;;;14.80;1.00;;;;;;5046475;28;20209;-89
2023/03/21 13:05:35;;;;;;;9.97;4.50;;;14.80;1.00;;;;;;5055577;28;20208;-90
2023/03/21 13:08:31;;;;;;;7.20;3.93;;;14.80;1.00;;;;;;5043135;28;20259;-89
2023/03/21 13:11:05;;;;;;;8.00;4.13;;;15.00;1.00;;;;;;5021064;28;20181;-90
2023/03/21 13:13:47;;;;;;;10.00;4.67;;;15.00;1.00;;;;;;5022354;28;20177;-89
2023/03/21 13:16:56;;;;;;;9.47;5.40;;;15.10;1.00;;;;;;5025813;28;20181;-92
2023/03/21 13:19:37;;;;;;;6.47;3.83;;;15.10;1.00;;;;;;4987460;28;20200;-90
2023/03/21 13:22:15;;;;;;;8.60;4.43;;;15.10;1.00;;;;;;4987651;28;20656;-89
2023/03/21 13:24:49;;;;;;;6.87;4.40;;;15.10;1.00;;;;;;5033853;28;20229;-89